Terminal Aerodrome Forecast
Issued by NWS Pendleton, OR

Home | Current Version | Previous Version | Text Only | Print | Product List | Glossary On
Versions: 1 2 3 4 5 6 7 8 9 10 11 12 13 14 15 16 17 18 19 20 21 22 23 24 25 26 27 28 29 30 31
000
FTUS46 KPDT 230700 AAA
TAFPDT
TAF AMD
KPDT 230740Z 2308/2406 26014KT P6SM SCT045 BKN060
     FM230900 23012KT P6SM FEW030 BKN040
     FM231500 23010KT P6SM VCSH SCT025 BKN050
     FM231900 25015G25KT P6SM -SHRA SCT025 BKN050=

USA.gov is the U.S. government's official web portal to all federal, state and local government web resources and services.